Airport ICAO


13:30 UTC

25°C

Scattered clouds


An affordable passengers' Moving Map for your aircraft. Made for the iPad and the iPhone
More information here

LFMD Mandelieu


Cannes FRANCE   VFR CB CAVOK


METAR LFMD 271300Z AUTO 14006KT 070V170 CAVOK 25/16 Q1016 TEMPO TS SCT100CB 0h30min

TAF LFMD 270800Z 2709/2809 10008KT CAVOK TEMPO 2710/2721 FEW110CB PROB30 TEMPO 2710/2721 TS SCT100CB TEMPO 2721/2809 4000 TSRA SCT060CB BKN110 5h30min





NOTAMS

OPEN